Time;durP1;ratioP1;P1;durP2;ratioP2;P2;SDS_P1;SDS_P2;PMS_P1;PMS_P2;Temp;Humidity;BMP_temperature;BMP_pressure;BME280_temperature;BME280_humidity;BME280_pressure;Samples;Min_cycle;Max_cycle;Signal;HPM_P1;HPM_P2
2022/08/23 00:01:34;;;;;;;5.95;4.28;;;;;;;15.39;100.00;90532.59;5051227;28;20041;-67
2022/08/23 00:04:04;;;;;;;6.22;4.72;;;;;;;15.31;100.00;90530.09;5051224;28;20032;-67
2022/08/23 00:06:30;;;;;;;6.45;4.78;;;;;;;15.22;100.00;90525.69;5051183;28;20021;-67
2022/08/23 00:08:55;;;;;;;8.98;4.80;;;;;;;15.27;100.00;90525.41;5051256;28;20051;-67
2022/08/23 00:11:34;;;;;;;7.10;5.45;;;;;;;15.40;100.00;90522.66;5051247;28;20486;-67
2022/08/23 00:14:07;;;;;;;6.10;4.50;;;;;;;15.39;100.00;90521.09;5051192;28;20056;-67
2022/08/23 00:16:33;;;;;;;6.80;4.95;;;;;;;15.40;100.00;90519.97;5050886;28;20044;-67
2022/08/23 00:18:59;;;;;;;6.55;4.70;;;;;;;15.45;100.00;90520.47;5051081;28;20032;-67
2022/08/23 00:21:24;;;;;;;6.40;4.93;;;;;;;15.44;100.00;90515.47;5051161;28;20473;-67
2022/08/23 00:23:50;;;;;;;7.00;5.03;;;;;;;15.40;100.00;90518.06;5051050;28;20032;-67
2022/08/23 00:26:16;;;;;;;8.02;4.47;;;;;;;15.32;100.00;90511.00;5050915;28;20037;-67
2022/08/23 00:28:42;;;;;;;8.05;5.55;;;;;;;15.39;100.00;90518.41;5051058;28;20024;-67
2022/08/23 00:31:07;;;;;;;6.88;4.95;;;;;;;15.40;100.00;90526.09;5051003;28;20035;-67
2022/08/23 00:33:34;;;;;;;9.25;5.55;;;;;;;15.41;100.00;90529.56;5050928;28;20025;-67
2022/08/23 00:35:59;;;;;;;7.68;5.13;;;;;;;15.46;100.00;90523.94;5050790;28;20487;-67
2022/08/23 00:38:25;;;;;;;7.93;5.05;;;;;;;15.45;100.00;90530.41;5050911;28;20036;-67
2022/08/23 00:40:52;;;;;;;7.18;4.75;;;;;;;15.53;100.00;90529.47;5050825;28;20559;-67
2022/08/23 00:49:17;;;;;;;7.40;3.88;;;;;;;15.58;100.00;90513.88;5050760;28;20040;-67
2022/08/23 00:51:46;;;;;;;9.07;5.25;;;;;;;15.54;100.00;90522.97;5050813;28;20033;-67
2022/08/23 00:54:13;;;;;;;7.93;5.65;;;;;;;15.27;100.00;90506.66;5050824;28;20054;-67
2022/08/23 00:56:38;;;;;;;9.82;5.95;;;;;;;15.09;100.00;90508.13;5050540;28;20029;-67
2022/08/23 00:59:05;;;;;;;8.20;4.88;;;;;;;15.02;100.00;90524.03;5050716;28;20796;-66
2022/08/23 01:01:32;;;;;;;5.97;4.65;;;;;;;14.92;100.00;90529.91;5050485;28;20045;-66
2022/08/23 01:03:58;;;;;;;6.60;4.95;;;;;;;14.82;100.00;90535.75;5050643;28;20029;-66
2022/08/23 01:06:54;;;;;;;6.10;4.65;;;;;;;14.79;100.00;90547.16;5050465;28;20018;-66
2022/08/23 01:09:21;;;;;;;5.65;3.95;;;;;;;14.65;100.00;90540.28;5050580;28;20520;-66
2022/08/23 01:11:57;;;;;;;4.80;4.15;;;;;;;14.67;100.00;90543.44;5050569;28;20112;-66
2022/08/23 01:14:31;;;;;;;6.22;4.40;;;;;;;14.67;100.00;90539.94;5050496;28;20487;-67
2022/08/23 01:17:22;;;;;;;6.10;4.40;;;;;;;14.80;100.00;90551.38;5050393;28;20025;-66
2022/08/23 01:20:02;;;;;;;6.45;4.57;;;;;;;14.88;100.00;90550.47;5050416;28;20515;-66
2022/08/23 01:22:37;;;;;;;6.43;4.55;;;;;;;14.87;100.00;90559.63;5050389;28;20033;-66
2022/08/23 01:25:07;;;;;;;6.32;4.85;;;;;;;14.88;100.00;90555.81;5050443;28;20121;-66
2022/08/23 01:27:33;;;;;;;7.45;4.63;;;;;;;15.01;100.00;90565.34;5050182;28;20025;-66
2022/08/23 01:29:58;;;;;;;6.13;4.50;;;;;;;15.02;100.00;90561.53;5050329;28;20033;-66
2022/08/23 01:32:24;;;;;;;9.68;5.75;;;;;;;15.11;100.00;90572.84;5050368;28;20035;-66
2022/08/23 01:34:50;;;;;;;9.88;5.95;;;;;;;15.13;100.00;90565.25;5050298;28;20542;-67
2022/08/23 01:37:18;;;;;;;8.57;5.40;;;;;;;15.14;100.00;90555.31;5050443;28;20398;-65
2022/08/23 01:39:44;;;;;;;10.63;6.35;;;;;;;15.20;100.00;90562.75;5052482;28;20462;-66
2022/08/23 01:42:10;;;;;;;9.68;5.95;;;;;;;15.26;100.00;90561.38;5053941;28;20060;-66
2022/08/23 01:44:35;;;;;;;7.25;5.78;;;;;;;15.33;100.00;90560.00;5053956;28;20041;-66
2022/08/23 01:47:01;;;;;;;8.18;5.43;;;;;;;15.45;100.00;90557.22;5053802;28;20028;-66
2022/08/23 01:49:26;;;;;;;13.00;6.53;;;;;;;15.42;100.00;90565.97;5053880;28;20544;-66
2022/08/23 01:51:52;;;;;;;13.38;5.97;;;;;;;15.41;100.00;90572.44;5053871;28;20029;-66
2022/08/23 01:54:17;;;;;;;8.60;5.88;;;;;;;15.46;100.00;90569.50;5053812;28;20065;-66
2022/08/23 01:56:43;;;;;;;11.95;6.30;;;;;;;15.48;100.00;90572.63;5053568;28;20082;-66
2022/08/23 01:59:11;;;;;;;9.27;6.88;;;;;;;15.45;100.00;90573.31;5053710;28;20108;-66
2022/08/23 02:01:36;;;;;;;9.93;6.35;;;;;;;15.43;100.00;90578.25;5044786;28;20049;-66
2022/08/23 02:04:02;;;;;;;11.45;6.78;;;;;;;15.42;100.00;90582.03;5033711;28;20420;-66
2022/08/23 02:06:28;;;;;;;14.68;8.15;;;;;;;15.44;100.00;90574.44;5176511;23;20057;-63
2022/08/23 02:09:00;;;;;;;9.65;6.40;;;;;;;15.47;100.00;90579.91;5033294;28;20033;-62
2022/08/23 02:11:27;;;;;;;9.85;6.75;;;;;;;15.53;100.00;90585.78;5033483;28;20030;-63
2022/08/23 02:13:55;;;;;;;10.00;6.35;;;;;;;15.54;100.00;90590.00;5033760;28;20036;-62
2022/08/23 02:16:32;;;;;;;10.90;6.53;;;;;;;15.57;100.00;90600.03;5033193;28;20598;-62
2022/08/23 02:19:01;;;;;;;11.38;7.47;;;;;;;15.51;100.00;90590.69;5033566;28;20029;-62
2022/08/23 02:21:30;;;;;;;7.60;5.50;;;;;;;15.51;100.00;90591.47;5033263;28;20025;-62
2022/08/23 02:24:01;;;;;;;9.45;6.35;;;;;;;15.60;100.00;90598.59;5033261;28;20041;-62
2022/08/23 02:26:27;;;;;;;8.45;5.38;;;;;;;15.64;100.00;90597.56;5033114;28;20030;-63
2022/08/23 02:28:52;;;;;;;7.32;4.80;;;;;;;15.66;100.00;90599.91;5033231;28;20099;-62
2022/08/23 02:31:20;;;;;;;7.18;5.70;;;;;;;15.69;100.00;90599.97;5033226;28;20036;-63
2022/08/23 02:33:45;;;;;;;9.05;6.28;;;;;;;15.67;100.00;90596.88;5033171;28;20129;-62
2022/08/23 02:36:11;;;;;;;8.23;5.43;;;;;;;15.70;100.00;90600.75;5032971;28;20479;-63
2022/08/23 02:38:37;;;;;;;9.18;5.95;;;;;;;15.68;100.00;90603.78;5032978;28;20446;-63
2022/08/23 02:41:03;;;;;;;12.43;6.38;;;;;;;15.71;100.00;90611.13;5032864;28;20033;-63
2022/08/23 02:43:29;;;;;;;7.00;5.53;;;;;;;15.59;100.00;90603.16;5032906;28;20035;-63
2022/08/23 02:45:54;;;;;;;10.60;5.97;;;;;;;15.50;100.00;90592.59;5032812;28;20029;-62
2022/08/23 02:48:20;;;;;;;8.40;5.82;;;;;;;15.49;100.00;90587.59;5032887;28;20037;-62
2022/08/23 02:50:45;;;;;;;7.82;4.93;;;;;;;15.47;100.00;90593.31;5031796;28;20068;-63
2022/08/23 02:53:11;;;;;;;8.98;5.68;;;;;;;15.46;100.00;90593.63;5032729;28;20029;-63
2022/08/23 02:55:37;;;;;;;8.50;5.35;;;;;;;15.40;100.00;90589.66;5032543;28;20055;-63
2022/08/23 02:58:04;;;;;;;8.13;5.22;;;;;;;15.40;100.00;90581.63;5032912;28;20033;-63
2022/08/23 03:00:30;;;;;;;8.52;5.20;;;;;;;15.40;100.00;90584.28;5032537;28;20041;-63
2022/08/23 03:02:56;;;;;;;7.45;5.20;;;;;;;15.37;100.00;90582.31;5032572;28;20108;-63
2022/08/23 03:05:22;;;;;;;11.65;6.13;;;;;;;15.33;100.00;90578.78;5032448;28;20574;-63
2022/08/23 03:07:47;;;;;;;10.70;6.82;;;;;;;15.36;100.00;90572.72;5014728;28;20530;-63
2022/08/23 03:10:15;;;;;;;11.77;7.07;;;;;;;15.39;100.00;90577.38;5032468;28;20076;-63
2022/08/23 03:12:41;;;;;;;10.57;6.25;;;;;;;15.47;100.00;90577.22;5032272;28;20025;-63
2022/08/23 03:15:07;;;;;;;10.07;6.63;;;;;;;15.44;100.00;90567.16;5032101;28;20044;-63
2022/08/23 03:17:33;;;;;;;8.00;5.80;;;;;;;15.35;100.00;90571.16;5032226;28;20032;-63
2022/08/23 03:19:58;;;;;;;11.70;6.72;;;;;;;15.27;100.00;90568.28;5032197;28;20036;-63
2022/08/23 03:22:24;;;;;;;11.43;5.95;;;;;;;15.21;100.00;90569.69;5032189;28;20025;-63
2022/08/23 03:24:50;;;;;;;9.05;6.25;;;;;;;15.17;100.00;90566.13;5031949;28;20037;-62
2022/08/23 03:27:15;;;;;;;8.55;6.05;;;;;;;15.09;100.00;90572.44;5032294;28;20053;-63
2022/08/23 03:29:41;;;;;;;7.60;5.47;;;;;;;14.96;100.00;90568.25;5032122;28;20448;-63
2022/08/23 03:32:06;;;;;;;10.15;6.03;;;;;;;14.88;100.00;90569.22;5032006;28;20025;-62
2022/08/23 03:34:33;;;;;;;10.63;5.93;;;;;;;14.81;100.00;90567.09;5032028;28;20037;-62
2022/08/23 03:36:59;;;;;;;12.20;6.45;;;;;;;14.79;100.00;90560.53;5031915;28;20044;-62
2022/08/23 03:39:25;;;;;;;9.10;6.00;;;;;;;14.81;100.00;90548.34;5031876;28;20494;-63
2022/08/23 03:41:50;;;;;;;8.38;5.72;;;;;;;14.78;100.00;90559.75;5031766;28;20025;-63
2022/08/23 03:44:16;;;;;;;8.25;5.43;;;;;;;14.77;100.00;90560.88;5031748;28;20061;-63
2022/08/23 03:46:41;;;;;;;12.13;7.45;;;;;;;14.72;100.00;90552.31;5031514;28;20638;-62
2022/08/23 03:49:07;;;;;;;11.10;7.63;;;;;;;14.70;100.00;90558.03;5031667;28;20043;-62
2022/08/23 03:51:33;;;;;;;9.75;6.85;;;;;;;14.73;100.00;90572.63;5031279;28;20045;-62
2022/08/23 03:53:59;;;;;;;9.70;6.03;;;;;;;14.70;100.00;90566.06;5031791;28;20105;-62
2022/08/23 03:56:29;;;;;;;9.07;5.93;;;;;;;14.72;100.00;90563.03;5031341;28;20037;-62
2022/08/23 03:58:59;;;;;;;9.50;5.85;;;;;;;14.79;100.00;90569.34;5031444;28;20029;-62
2022/08/23 04:01:25;;;;;;;10.73;6.72;;;;;;;14.78;100.00;90556.31;5021629;28;20501;-63
2022/08/23 04:03:51;;;;;;;8.68;5.93;;;;;;;14.90;100.00;90562.38;5011409;28;20057;-62
2022/08/23 04:06:17;;;;;;;8.15;5.45;;;;;;;14.92;100.00;90560.13;5011267;28;20163;-62
2022/08/23 04:08:43;;;;;;;12.32;6.43;;;;;;;15.06;100.00;90573.13;5011466;28;20029;-62
2022/08/23 04:11:11;;;;;;;8.93;6.22;;;;;;;15.11;100.00;90564.81;5011125;28;20042;-62
2022/08/23 04:13:38;;;;;;;10.50;6.53;;;;;;;15.23;100.00;90566.66;5011587;28;20411;-63
2022/08/23 04:16:04;;;;;;;9.25;6.07;;;;;;;15.38;100.00;90559.75;5011205;28;20034;-62
2022/08/23 04:18:31;;;;;;;7.25;5.57;;;;;;;15.51;100.00;90564.66;5011277;28;20168;-62
2022/08/23 04:21:01;;;;;;;6.50;4.97;;;;;;;15.57;100.00;90559.81;5011430;28;20463;-63
2022/08/23 04:23:27;;;;;;;9.48;5.00;;;;;;;15.67;100.00;90550.50;5011305;28;20061;-63
2022/08/23 04:25:54;;;;;;;9.95;6.10;;;;;;;15.75;100.00;90561.03;5011107;28;20113;-63
2022/08/23 04:28:20;;;;;;;9.32;6.07;;;;;;;15.97;100.00;90561.53;5011377;28;20029;-63
2022/08/23 04:30:46;;;;;;;10.13;6.15;;;;;;;16.18;100.00;90561.97;5011371;28;20030;-63
2022/08/23 04:33:11;;;;;;;7.70;5.72;;;;;;;16.32;100.00;90573.03;5011317;28;20032;-63
2022/08/23 04:35:37;;;;;;;7.38;4.80;;;;;;;16.42;100.00;90569.78;5011123;28;20057;-63
2022/08/23 04:38:03;;;;;;;7.43;4.63;;;;;;;16.53;100.00;90570.00;5011323;28;20048;-63
2022/08/23 04:43:12;;;;;;;9.32;5.53;;;;;;;16.64;100.00;90572.91;5011182;28;20061;-63
2022/08/23 04:45:39;;;;;;;6.85;4.90;;;;;;;17.20;100.00;90584.00;5011441;28;20492;-63
2022/08/23 04:48:05;;;;;;;9.60;4.68;;;;;;;18.54;100.00;90578.41;5011255;28;20488;-63
2022/08/23 04:50:32;;;;;;;8.38;5.78;;;;;;;19.23;100.00;90578.06;5011234;28;20079;-63
2022/08/23 04:52:57;;;;;;;9.23;5.65;;;;;;;18.81;100.00;90582.63;5011420;28;20026;-63
2022/08/23 04:55:23;;;;;;;9.07;6.25;;;;;;;18.39;100.00;90584.72;5011035;28;20030;-63
2022/08/23 04:57:48;;;;;;;8.68;5.65;;;;;;;19.20;100.00;90603.84;5011414;28;20033;-63
2022/08/23 05:00:15;;;;;;;8.52;6.25;;;;;;;20.32;100.00;90594.47;5011286;28;20415;-63
2022/08/23 05:02:41;;;;;;;12.30;7.80;;;;;;;20.17;100.00;90608.25;5010982;28;20487;-63
2022/08/23 05:05:08;;;;;;;8.93;5.68;;;;;;;20.30;100.00;90604.09;5010726;28;20037;-63
2022/08/23 05:07:35;;;;;;;8.88;5.78;;;;;;;20.58;100.00;90609.72;5011008;28;20026;-63
2022/08/23 05:10:00;;;;;;;8.65;6.00;;;;;;;20.14;100.00;90603.59;5011042;28;20079;-64
2022/08/23 05:12:27;;;;;;;11.50;6.55;;;;;;;19.80;100.00;90598.31;5010813;28;20427;-63
2022/08/23 05:14:52;;;;;;;9.77;6.28;;;;;;;19.87;100.00;90597.59;5013197;28;20037;-64
2022/08/23 05:17:17;;;;;;;11.40;6.68;;;;;;;20.12;100.00;90595.88;5014751;28;20534;-64
2022/08/23 05:19:43;;;;;;;13.18;6.80;;;;;;;22.34;100.00;90590.13;5015034;28;20033;-64
2022/08/23 05:22:08;;;;;;;10.70;7.13;;;;;;;23.58;100.00;90591.75;5014721;28;20053;-63
2022/08/23 05:24:34;;;;;;;13.88;7.07;;;;;;;25.16;96.73;90594.78;5014569;28;20036;-64
2022/08/23 05:26:59;;;;;;;10.55;6.78;;;;;;;25.88;86.22;90607.16;5014522;28;20032;-64
2022/08/23 05:29:24;;;;;;;9.77;6.25;;;;;;;27.60;71.96;90600.38;5014794;28;20034;-64
2022/08/23 05:31:50;;;;;;;9.25;6.72;;;;;;;28.82;65.32;90610.22;5014573;28;20492;-63
2022/08/23 05:34:15;;;;;;;9.23;6.10;;;;;;;30.39;59.12;90608.72;5014526;28;20041;-64
2022/08/23 05:36:42;;;;;;;9.35;6.28;;;;;;;31.29;55.21;90619.19;5014203;28;20025;-64
2022/08/23 05:39:07;;;;;;;14.65;9.18;;;;;;;30.23;55.33;90606.84;5014378;28;20033;-64
2022/08/23 05:41:32;;;;;;;7.55;5.25;;;;;;;27.95;60.91;90601.66;5014263;28;20554;-64
2022/08/23 05:43:58;;;;;;;8.00;5.68;;;;;;;28.91;60.21;90613.16;5014166;28;20033;-64
2022/08/23 05:46:23;;;;;;;9.95;6.35;;;;;;;30.94;54.57;90618.38;5013964;28;20036;-63
2022/08/23 05:48:50;;;;;;;8.07;6.00;;;;;;;31.79;52.12;90613.97;5014095;28;20623;-64
2022/08/23 05:51:18;;;;;;;11.25;6.65;;;;;;;32.66;50.27;90613.06;5014464;28;20072;-64
2022/08/23 05:53:45;;;;;;;8.77;6.10;;;;;;;31.80;51.11;90621.78;5014141;28;20030;-64
2022/08/23 05:56:32;;;;;;;8.52;5.82;;;;;;;34.11;46.72;90613.81;5013905;28;20034;-64
2022/08/23 05:59:01;;;;;;;9.80;5.97;;;;;;;34.56;44.87;90618.47;5013990;28;20026;-64
2022/08/23 06:01:28;;;;;;;9.82;6.00;;;;;;;32.70;47.16;90620.00;5014210;28;20026;-64
2022/08/23 06:03:54;;;;;;;8.20;6.40;;;;;;;32.59;47.72;90610.63;5013877;28;20033;-64
2022/08/23 06:06:19;;;;;;;7.35;5.72;;;;;;;33.14;47.20;90619.06;5013719;28;20046;-64
2022/08/23 06:08:47;;;;;;;7.03;5.90;;;;;;;32.06;49.10;90622.41;5014136;28;20040;-65
2022/08/23 06:11:16;;;;;;;7.45;5.97;;;;;;;32.48;48.95;90620.06;5013815;28;20052;-64
2022/08/23 06:13:50;;;;;;;7.97;5.85;;;;;;;32.21;48.86;90622.66;5013433;28;20132;-64
2022/08/23 06:16:19;;;;;;;9.10;5.88;;;;;;;32.28;49.29;90622.41;5013466;28;20029;-65
2022/08/23 06:18:45;;;;;;;6.90;5.50;;;;;;;32.23;48.42;90631.22;5032878;28;20026;-65
2022/08/23 06:21:13;;;;;;;8.13;5.43;;;;;;;33.87;45.41;90631.00;5033306;28;20565;-65
2022/08/23 06:23:39;;;;;;;8.90;6.40;;;;;;;33.31;45.50;90631.38;5033373;28;20084;-65
2022/08/23 06:26:16;;;;;;;10.57;6.50;;;;;;;31.82;48.12;90630.34;5032941;28;20034;-65
2022/08/23 06:28:44;;;;;;;7.97;5.60;;;;;;;30.57;51.26;90628.16;5031994;28;20121;-65
2022/08/23 06:31:09;;;;;;;7.53;5.35;;;;;;;31.44;50.37;90640.72;5033084;28;20040;-65
2022/08/23 06:33:36;;;;;;;8.60;5.50;;;;;;;30.18;52.55;90634.06;5033444;28;20473;-66
2022/08/23 06:36:12;;;;;;;7.65;5.38;;;;;;;31.06;51.13;90633.28;5033195;28;20041;-65
2022/08/23 06:38:39;;;;;;;8.65;7.13;;;;;;;31.21;50.27;90648.13;5033357;28;20442;-65
2022/08/23 06:41:08;;;;;;;12.30;8.38;;;;;;;29.28;52.90;90652.13;5032906;28;20033;-65
2022/08/23 06:43:35;;;;;;;10.45;7.70;;;;;;;27.51;58.62;90646.66;5033066;28;20049;-65
2022/08/23 06:46:21;;;;;;;13.88;8.40;;;;;;;26.79;61.97;90647.09;5032957;28;20033;-65
2022/08/23 06:48:47;;;;;;;11.43;7.65;;;;;;;26.45;63.47;90644.53;5032770;28;20034;-65
2022/08/23 06:51:35;;;;;;;10.05;7.45;;;;;;;25.68;70.27;90638.94;5032794;28;20113;-65
2022/08/23 06:54:03;;;;;;;14.52;8.88;;;;;;;25.41;76.05;90643.53;5032595;28;20034;-64
2022/08/23 06:56:29;;;;;;;8.35;6.30;;;;;;;25.44;75.44;90642.72;5032445;28;20025;-65
2022/08/23 06:58:55;;;;;;;7.93;5.55;;;;;;;25.43;76.12;90641.94;5032638;28;20402;-65
2022/08/23 07:01:36;;;;;;;7.72;5.80;;;;;;;25.61;75.33;90633.56;5032283;28;20467;-65
2022/08/23 07:04:05;;;;;;;8.05;5.10;;;;;;;25.71;74.44;90632.66;5039421;28;20044;-65
2022/08/23 07:06:31;;;;;;;7.70;5.60;;;;;;;24.86;83.87;90626.16;5037948;28;20412;-65
2022/08/23 07:08:57;;;;;;;8.27;5.68;;;;;;;24.33;93.82;90632.06;5039829;28;20084;-65
2022/08/23 07:11:25;;;;;;;10.88;6.07;;;;;;;24.43;93.43;90626.53;5036348;28;20501;-65
2022/08/23 07:13:51;;;;;;;8.73;5.88;;;;;;;24.37;95.61;90627.38;5032300;28;20049;-65
2022/08/23 07:16:18;;;;;;;10.70;6.63;;;;;;;24.15;97.07;90634.91;5032200;28;20490;-65
2022/08/23 07:18:48;;;;;;;9.48;6.30;;;;;;;24.37;98.34;90630.09;5032294;28;20080;-65
2022/08/23 07:21:14;;;;;;;9.45;6.07;;;;;;;24.64;94.24;90633.00;5032182;28;20507;-64
2022/08/23 07:23:40;;;;;;;10.27;6.50;;;;;;;24.73;92.76;90634.06;5032113;28;20160;-65
2022/08/23 07:26:10;;;;;;;9.25;6.53;;;;;;;24.87;91.53;90638.59;5031869;28;20045;-66
2022/08/23 07:28:37;;;;;;;11.63;6.40;;;;;;;24.65;87.40;90639.97;5032075;28;20400;-64
2022/08/23 07:31:10;;;;;;;8.68;6.00;;;;;;;24.84;88.20;90644.09;5031840;28;20053;-64
2022/08/23 07:33:36;;;;;;;8.63;5.88;;;;;;;24.82;85.72;90632.84;5032237;28;20053;-66
2022/08/23 07:36:03;;;;;;;9.77;6.45;;;;;;;24.04;94.31;90637.69;5031616;28;20045;-65
2022/08/23 07:38:28;;;;;;;10.75;6.47;;;;;;;24.00;100.00;90639.66;5039095;28;20037;-65
2022/08/23 07:40:54;;;;;;;10.55;6.75;;;;;;;23.71;100.00;90649.13;5034296;28;20076;-65
2022/08/23 07:43:19;;;;;;;9.02;6.20;;;;;;;24.08;100.00;90654.72;5031799;28;20041;-64
2022/08/23 07:45:47;;;;;;;10.55;7.15;;;;;;;23.57;100.00;90653.44;5034265;28;20039;-67
2022/08/23 07:48:13;;;;;;;11.43;7.00;;;;;;;23.06;100.00;90656.69;5050957;28;20040;-65
2022/08/23 07:50:39;;;;;;;16.33;7.03;;;;;;;22.88;100.00;90659.44;5042127;28;20402;-66
2022/08/23 07:53:06;;;;;;;11.45;6.93;;;;;;;22.93;100.00;90661.75;5031672;28;20124;-66
2022/08/23 07:55:31;;;;;;;10.65;6.88;;;;;;;23.25;100.00;90664.41;5031495;28;20034;-66
2022/08/23 07:57:57;;;;;;;9.38;6.18;;;;;;;23.59;100.00;90661.97;5036414;28;20509;-66
2022/08/23 08:00:22;;;;;;;11.52;6.88;;;;;;;23.87;100.00;90663.78;5041155;28;20060;-66
2022/08/23 08:02:48;;;;;;;12.00;7.88;;;;;;;23.83;100.00;90665.75;5049723;28;20029;-66
2022/08/23 08:05:13;;;;;;;10.88;7.45;;;;;;;24.16;100.00;90664.41;5051108;28;20552;-65
2022/08/23 08:07:39;;;;;;;13.05;7.18;;;;;;;24.23;100.00;90666.28;5051364;28;20029;-66
2022/08/23 08:10:05;;;;;;;19.15;7.95;;;;;;;26.12;89.15;90667.19;5051317;28;20533;-66
2022/08/23 08:12:31;;;;;;;12.13;6.90;;;;;;;26.60;77.19;90668.88;5051208;28;20044;-66
2022/08/23 08:14:57;;;;;;;8.20;6.28;;;;;;;26.15;76.85;90664.41;5051041;28;20051;-66
2022/08/23 08:17:22;;;;;;;11.00;7.28;;;;;;;26.48;79.54;90662.78;5051089;28;20482;-66
2022/08/23 08:19:48;;;;;;;8.52;6.10;;;;;;;27.19;70.78;90662.84;5051111;28;20041;-66
2022/08/23 08:22:13;;;;;;;9.00;6.03;;;;;;;28.08;66.15;90678.31;5046749;28;20036;-66
2022/08/23 08:24:39;;;;;;;7.93;5.82;;;;;;;30.69;59.54;90665.84;5033407;28;20033;-66
2022/08/23 08:27:05;;;;;;;8.00;5.90;;;;;;;33.06;53.24;90668.97;5031133;28;20550;-66
2022/08/23 08:29:31;;;;;;;7.40;5.43;;;;;;;34.40;48.29;90676.81;5031186;28;20116;-66
2022/08/23 08:31:56;;;;;;;7.18;5.28;;;;;;;34.42;46.62;90669.63;5031066;28;20043;-66
2022/08/23 08:34:22;;;;;;;7.38;5.68;;;;;;;33.75;46.48;90666.97;5032167;28;20030;-66
2022/08/23 08:36:52;;;;;;;6.70;5.40;;;;;;;32.48;49.78;90672.38;5040105;28;20174;-66
2022/08/23 08:39:30;;;;;;;6.32;4.80;;;;;;;32.41;49.18;90672.66;5041284;28;20513;-66
2022/08/23 08:42:05;;;;;;;7.68;5.38;;;;;;;31.51;49.61;90667.94;5041180;28;20041;-67
2022/08/23 08:44:39;;;;;;;6.85;4.57;;;;;;;31.17;50.23;90666.69;5041029;28;20084;-66
2022/08/23 08:47:33;;;;;;;8.48;5.32;;;;;;;31.70;51.31;90663.38;5033799;28;20095;-66
2022/08/23 08:50:01;;;;;;;9.18;4.90;;;;;;;31.86;50.57;90658.47;5035277;28;20475;-66
2022/08/23 08:52:31;;;;;;;7.20;5.45;;;;;;;31.58;50.24;90659.47;5035000;28;20041;-66
2022/08/23 08:55:13;;;;;;;7.88;5.30;;;;;;;32.80;48.79;90648.34;5035105;28;20046;-66
2022/08/23 08:57:47;;;;;;;7.05;5.15;;;;;;;34.45;46.44;90645.81;5034926;28;20048;-66
2022/08/23 09:00:18;;;;;;;7.78;5.75;;;;;;;34.26;46.78;90649.84;5034915;28;20083;-66
2022/08/23 09:02:44;;;;;;;7.93;6.20;;;;;;;31.89;50.51;90648.59;5034400;28;20513;-66
2022/08/23 09:05:11;;;;;;;7.32;5.15;;;;;;;31.96;51.26;90653.06;5034485;28;20049;-66
2022/08/23 09:07:49;;;;;;;9.43;6.18;;;;;;;33.53;48.54;90654.09;5034725;28;20152;-66
2022/08/23 09:10:26;;;;;;;8.25;6.00;;;;;;;34.53;46.26;90655.31;5034862;28;20036;-66
2022/08/23 09:13:13;;;;;;;6.88;5.13;;;;;;;34.49;46.23;90657.47;5034241;28;20033;-66
2022/08/23 09:15:57;;;;;;;7.22;5.18;;;;;;;36.48;42.28;90658.81;5034207;28;20029;-66
2022/08/23 09:18:23;;;;;;;6.18;4.45;;;;;;;34.01;43.34;90656.44;5034532;28;20037;-65
2022/08/23 09:20:52;;;;;;;6.63;4.75;;;;;;;31.83;47.23;90659.38;5034458;28;20092;-65
2022/08/23 09:23:34;;;;;;;5.57;4.72;;;;;;;31.02;49.62;90664.84;5034697;28;20029;-65
2022/08/23 09:26:03;;;;;;;6.00;5.03;;;;;;;31.24;52.33;90661.00;5034257;28;20034;-65
2022/08/23 09:28:32;;;;;;;5.53;4.65;;;;;;;30.82;52.38;90662.34;5034340;28;20538;-65
2022/08/23 09:30:59;;;;;;;7.32;5.43;;;;;;;29.97;54.54;90663.59;5016541;28;20466;-65
2022/08/23 09:33:36;;;;;;;7.82;5.25;;;;;;;29.38;56.18;90656.56;5034249;28;20041;-65
2022/08/23 09:36:21;;;;;;;5.68;4.78;;;;;;;29.33;58.06;90665.31;5034154;28;20112;-65
2022/08/23 09:38:53;;;;;;;7.65;4.90;;;;;;;29.88;58.07;90665.47;5034217;28;20067;-66
2022/08/23 09:41:23;;;;;;;8.63;4.80;;;;;;;30.33;55.55;90679.09;5034090;28;20426;-66
2022/08/23 09:43:49;;;;;;;7.10;4.80;;;;;;;29.60;56.73;90684.22;5033982;28;20033;-66
2022/08/23 09:46:25;;;;;;;7.43;4.53;;;;;;;29.01;55.88;90681.78;5034134;28;20037;-66
2022/08/23 09:48:54;;;;;;;6.85;4.65;;;;;;;29.13;56.47;90678.34;5034024;28;20045;-66
2022/08/23 09:51:33;;;;;;;5.43;4.60;;;;;;;31.01;54.78;90683.31;5033921;28;20033;-66
2022/08/23 09:54:18;;;;;;;7.93;4.57;;;;;;;33.40;50.19;90689.31;5033756;28;20067;-65
2022/08/23 09:56:52;;;;;;;4.20;3.67;;;;;;;34.43;44.25;90681.44;5034000;28;20045;-66
2022/08/23 09:59:26;;;;;;;5.97;4.00;;;;;;;36.35;43.42;90683.28;5033728;28;20087;-66
2022/08/23 10:01:57;;;;;;;6.78;4.55;;;;;;;35.44;42.41;90686.66;5033688;28;20094;-65
2022/08/23 10:04:39;;;;;;;5.97;3.85;;;;;;;33.30;44.49;90687.75;5015856;28;20041;-65
2022/08/23 10:07:25;;;;;;;4.25;3.40;;;;;;;33.43;45.35;90680.13;5033442;28;20110;-65
2022/08/23 10:09:52;;;;;;;4.97;4.38;;;;;;;32.88;45.27;90679.94;5033847;28;20122;-64
2022/08/23 10:12:18;;;;;;;5.70;4.65;;;;;;;31.37;46.99;90682.19;5033781;28;20036;-66
2022/08/23 10:14:43;;;;;;;13.90;7.82;;;;;;;31.23;50.63;90678.69;5033469;28;20038;-65
2022/08/23 10:17:32;;;;;;;7.53;5.43;;;;;;;32.23;48.22;90683.53;5033373;28;20439;-66
2022/08/23 10:20:40;;;;;;;7.78;5.50;;;;;;;33.00;45.57;90684.59;5033470;28;20120;-65
2022/08/23 10:23:21;;;;;;;6.18;4.88;;;;;;;33.47;45.12;90680.78;5033440;28;20503;-65
2022/08/23 10:25:57;;;;;;;5.22;4.25;;;;;;;31.12;47.93;90686.50;5033248;28;20041;-64
2022/08/23 10:32:03;;;;;;;7.10;4.45;;;;;;;32.24;48.13;90687.81;5030412;28;20190;-65
2022/08/23 10:34:37;;;;;;;5.03;3.88;;;;;;;33.59;44.73;90679.84;5033230;28;20120;-65
2022/08/23 10:37:40;;;;;;;6.05;4.60;;;;;;;30.79;48.60;90676.97;5032982;28;20042;-65
2022/08/23 10:40:18;;;;;;;6.93;5.07;;;;;;;30.63;52.66;90672.34;5022456;28;20057;-65
2022/08/23 10:43:05;;;;;;;10.30;6.20;;;;;;;30.76;52.44;90664.09;5032604;28;20045;-67
2022/08/23 10:45:38;;;;;;;6.38;4.55;;;;;;;30.96;51.25;90664.63;5032879;28;20076;-66
2022/08/23 10:48:21;;;;;;;6.68;4.97;;;;;;;31.44;51.56;90652.47;5032878;28;20033;-66
2022/08/23 10:51:03;;;;;;;4.68;4.10;;;;;;;30.98;49.32;90657.50;5032858;28;20489;-66
2022/08/23 10:53:45;;;;;;;7.27;4.83;;;;;;;31.03;51.44;90656.16;5029964;28;20040;-65
2022/08/23 10:56:20;;;;;;;8.05;4.78;;;;;;;31.57;50.71;90663.44;5030124;28;20077;-66
2022/08/23 10:59:01;;;;;;;7.03;4.80;;;;;;;31.05;49.41;90648.25;5026150;28;20034;-65
2022/08/23 11:01:35;;;;;;;5.75;4.68;;;;;;;31.81;49.66;90656.31;5031173;28;20525;-66
2022/08/23 11:04:05;;;;;;;8.60;5.47;;;;;;;32.39;49.33;90653.06;5030727;28;20037;-66
2022/08/23 11:06:33;;;;;;;6.25;4.82;;;;;;;33.54;46.58;90657.63;5035717;28;20068;-66
2022/08/23 11:09:02;;;;;;;5.93;4.57;;;;;;;34.25;44.82;90660.13;5032493;28;20045;-66
2022/08/23 11:12:05;;;;;;;6.85;5.00;;;;;;;33.94;45.16;90669.34;5039248;28;20120;-66
2022/08/23 11:14:37;;;;;;;6.43;4.90;;;;;;;33.54;44.88;90663.91;5046883;28;20052;-66
2022/08/23 11:17:22;;;;;;;7.60;4.75;;;;;;;32.46;45.69;90669.31;5032119;28;20052;-65
2022/08/23 11:19:51;;;;;;;8.18;5.30;;;;;;;31.67;49.36;90661.53;5051102;28;20061;-65
2022/08/23 11:22:21;;;;;;;6.47;4.57;;;;;;;32.13;45.37;90657.91;5039944;28;20033;-66
2022/08/23 11:24:51;;;;;;;5.65;4.40;;;;;;;31.72;48.94;90664.47;5043903;28;20021;-66
2022/08/23 11:27:36;;;;;;;7.22;5.00;;;;;;;32.94;47.62;90664.34;5043787;28;20037;-66
2022/08/23 11:30:30;;;;;;;5.75;4.68;;;;;;;32.65;45.16;90667.41;5046269;28;20483;-65
2022/08/23 11:33:08;;;;;;;9.23;4.72;;;;;;;32.10;47.70;90661.56;5024232;28;20024;-66
2022/08/23 11:35:54;;;;;;;5.25;3.97;;;;;;;32.57;47.49;90659.88;5042137;28;20025;-66
2022/08/23 11:38:47;;;;;;;6.90;4.00;;;;;;;32.89;45.87;90662.19;5042077;28;20104;-66
2022/08/23 11:41:18;;;;;;;5.72;4.05;;;;;;;33.86;45.91;90661.81;5049092;28;20032;-66
2022/08/23 11:44:09;;;;;;;4.80;3.97;;;;;;;34.02;45.21;90652.44;5025146;28;20028;-66
2022/08/23 11:46:54;;;;;;;4.97;4.35;;;;;;;33.67;43.40;90654.72;5033477;28;20553;-66
2022/08/23 11:49:32;;;;;;;5.38;4.40;;;;;;;33.51;46.28;90653.78;5032763;28;20040;-65
2022/08/23 11:52:16;;;;;;;4.70;3.65;;;;;;;32.57;44.66;90654.38;5037471;28;20036;-66